الرياض, Saudi Arabia

05:39 PM AST on لبراêر 26, 2017 (GMT +0300)
Western Nakhil | | Change Station

Elev 2188 ft 24.74 °N, 46.61 °E | Updated 8 seconds ago

صافية
صافية
68.4 °F
Feels Like 68.4 °F
N
6.5
ريح متغير ريح from جنوب شرقی
Gusts 7.4 mph

هذا اليوم
High -- | Low -- °F
--% Chance of Precip.
Yesterday
High -- | Low -- °F
Precip. -- في
الضغط 30.09 في
وضوح الرؤية 5.6 أميال
سحابات صافية
نقطة الندى 26 °F
الرطوبة 20%
Rainfall 0.00 في
عمق الثلج Not available.
6:18 AM 5:53 PM
الهلال الأخير, 0% visible
METAR OERK 261400Z 01008KT 9000 SKC 20/M07 Q1019 NOSIG
الضغط 30.09 في
وضوح الرؤية 5.6 أميال
سحابات صافية
نقطة الندى 26 °F
الرطوبة 20%
Rainfall 0.00 في
عمق الثلج Not available.
6:18 AM 5:53 PM
الهلال الأخير, 0% visible
METAR OERK 261400Z 01008KT 9000 SKC 20/M07 Q1019 NOSIG

Get Your Daily Forecast Email!

Thanks for signing up!

Be on the lookout for a verification email in your inbox.

You'll start receiving the daily forecast at 8 AM.

×

10-Day Weather Forecast

No radar image for this location.
×

Almanac

علم الفلك

Feb. 26, 2017 Rise Set
Actual Time
Civil Twilight
Nautical Twilight
Astronomical Twilight
قمر
Length Of Visible Light
طول الیوم
Tomorrow will be .
, % of the Moon is Illuminated

Today's Extremes

Country Highs Country Lows

Community

WunderPhotos

Upload Photos

1,962,540 photos uploaded!

WunderBlog® & News

Nearby

جودة الهواء

  جودة الهواء AQ Index Pollutant
Not available.

عمق الثلج

Station Depth Elevation

Earthquake Activity

City Distance Mag. Time & Date
Minimum magnitude displayed is 2.5.

Coastal Water Temperatures

مكان درجات الحرارة

Stations

Nearby Weather Stations

Station Location الحرارة رياح باردة نقطة الندى الرطوبة ريح Precip. Elev تحديث Type